Time;durP1;ratioP1;P1;durP2;ratioP2;P2;SDS_P1;SDS_P2;PMS_P1;PMS_P2;Temp;Humidity;BMP_temperature;BMP_pressure;BME280_temperature;BME280_humidity;BME280_pressure;Samples;Min_cycle;Max_cycle;Signal;HPM_P1;HPM_P2
2022/05/16 00:01:19;;;;;;;3.65;2.60;;;;;;;12.04;55.86;101158.56;5062360;28;20081;-17
2022/05/16 00:03:45;;;;;;;2.75;2.53;;;;;;;12.00;56.04;101154.19;5062805;28;20031;-17
2022/05/16 00:06:10;;;;;;;3.33;2.40;;;;;;;11.98;55.62;101153.31;5061877;28;20024;-17
2022/05/16 00:08:35;;;;;;;4.85;2.53;;;;;;;11.92;56.12;101154.22;5059710;28;20024;-17
2022/05/16 00:11:01;;;;;;;3.83;2.63;;;;;;;11.86;55.90;101151.63;5061167;28;20391;-17
2022/05/16 00:13:26;;;;;;;3.42;2.47;;;;;;;11.87;55.62;101159.53;5062935;28;20396;-17
2022/05/16 00:15:52;;;;;;;4.35;2.90;;;;;;;11.81;55.88;101157.81;5059328;28;20393;-17
2022/05/16 00:18:17;;;;;;;3.58;3.28;;;;;;;11.76;55.75;101151.69;5063040;28;20111;-17
2022/05/16 00:20:48;;;;;;;4.00;3.60;;;;;;;11.74;56.14;101160.53;5059854;28;20036;-17
2022/05/16 00:23:14;;;;;;;3.10;2.63;;;;;;;11.73;55.73;101153.47;5061081;28;20027;-17
2022/05/16 00:25:39;;;;;;;3.10;2.70;;;;;;;11.71;56.14;101152.59;5060538;28;20032;-17
2022/05/16 00:28:05;;;;;;;5.38;2.80;;;;;;;11.64;56.22;101151.78;5047168;28;20032;-17
2022/05/16 00:30:30;;;;;;;2.75;2.47;;;;;;;11.59;56.01;101151.78;5063106;28;20035;-17
2022/05/16 00:32:56;;;;;;;2.88;2.53;;;;;;;11.60;56.19;101153.53;5059437;28;20041;-17
2022/05/16 00:35:21;;;;;;;3.75;2.60;;;;;;;11.51;55.71;101150.97;5061116;28;20275;-17
2022/05/16 00:37:47;;;;;;;2.92;2.42;;;;;;;11.47;55.74;101151.88;5060249;28;20032;-17
2022/05/16 00:40:13;;;;;;;3.08;2.80;;;;;;;11.44;55.90;101146.59;5062432;28;20433;-17
2022/05/16 00:42:39;;;;;;;4.43;2.70;;;;;;;11.41;56.21;101145.72;5058353;28;20044;-17
2022/05/16 00:45:07;;;;;;;3.15;2.65;;;;;;;11.33;56.34;101144.88;5062048;28;20029;-17
2022/05/16 00:47:32;;;;;;;2.47;2.17;;;;;;;11.27;56.05;101144.91;5066524;28;20020;-17
2022/05/16 00:50:00;;;;;;;4.47;2.45;;;;;;;11.24;56.04;101137.00;5061173;28;20472;-17
2022/05/16 00:52:33;;;;;;;3.47;2.80;;;;;;;11.24;56.35;101142.28;5059930;28;20060;-17
2022/05/16 00:55:18;;;;;;;4.70;3.60;;;;;;;11.20;56.28;101141.41;5063325;28;20097;-17
2022/05/16 00:57:46;;;;;;;3.33;2.90;;;;;;;11.17;56.35;101144.06;5062669;28;20377;-17
2022/05/16 01:00:24;;;;;;;2.95;2.42;;;;;;;11.13;56.40;101140.56;5058464;28;20476;-17
2022/05/16 01:05:38;;;;;;;2.85;2.65;;;;;;;11.07;56.58;101137.94;5057934;28;20395;-17
2022/05/16 01:08:06;;;;;;;3.63;2.70;;;;;;;11.02;56.37;101119.50;5059904;28;20025;-17
2022/05/16 01:10:32;;;;;;;4.82;2.67;;;;;;;10.99;56.43;101129.16;5064562;28;20023;-17
2022/05/16 01:12:58;;;;;;;3.35;2.63;;;;;;;10.97;56.35;101125.69;5058933;28;20075;-17
2022/05/16 01:15:23;;;;;;;4.57;3.00;;;;;;;10.96;56.72;101123.91;5054013;28;20020;-18
2022/05/16 01:17:49;;;;;;;2.90;2.58;;;;;;;10.93;56.79;101121.28;5060676;28;20031;-17
2022/05/16 01:20:14;;;;;;;2.80;2.50;;;;;;;10.87;56.73;101116.91;5057727;28;20025;-17
2022/05/16 01:22:48;;;;;;;3.58;2.60;;;;;;;10.87;56.96;101115.13;5062732;28;20021;-17
2022/05/16 01:25:24;;;;;;;5.05;2.88;;;;;;;10.79;56.80;101119.56;5060599;28;20500;-17
2022/05/16 01:27:55;;;;;;;3.90;2.40;;;;;;;10.78;56.92;101120.44;5062249;28;20024;-17
2022/05/16 01:30:24;;;;;;;4.50;3.33;;;;;;;10.82;57.32;101109.00;5061068;28;20028;-17
2022/05/16 01:32:49;;;;;;;3.40;2.83;;;;;;;10.76;57.12;101099.34;5062533;28;20021;-17
2022/05/16 01:35:23;;;;;;;3.58;2.63;;;;;;;10.73;57.03;101106.38;5060564;28;20051;-17
2022/05/16 01:40:34;;;;;;;3.25;2.85;;;;;;;10.64;57.42;101102.88;5059372;28;20573;-17
2022/05/16 01:42:59;;;;;;;3.75;2.80;;;;;;;10.63;57.26;101105.53;5057451;28;20029;-17
2022/05/16 01:45:24;;;;;;;6.07;2.70;;;;;;;10.63;57.26;101105.53;5040309;28;20027;-17
2022/05/16 01:47:50;;;;;;;3.55;2.90;;;;;;;10.62;56.94;101103.78;5056571;28;20036;-17
2022/05/16 01:50:15;;;;;;;2.90;2.60;;;;;;;10.60;57.11;101109.06;5058665;28;20107;-17
2022/05/16 01:52:40;;;;;;;3.10;2.80;;;;;;;10.56;57.04;101104.66;5065239;28;20032;-17
2022/05/16 01:55:07;;;;;;;4.65;2.90;;;;;;;10.54;57.17;101106.44;5064945;28;20041;-17
2022/05/16 01:57:32;;;;;;;3.38;2.88;;;;;;;10.50;57.62;101102.91;5065413;28;20125;-17
2022/05/16 01:59:58;;;;;;;5.43;3.25;;;;;;;10.50;57.28;101102.91;5061084;28;20488;-17
2022/05/16 02:02:23;;;;;;;3.95;2.80;;;;;;;10.49;57.23;101092.38;5058972;28;20377;-17
2022/05/16 02:04:49;;;;;;;3.38;3.03;;;;;;;10.45;57.35;101087.97;5064865;28;20488;-17
2022/05/16 02:07:14;;;;;;;5.68;2.72;;;;;;;10.42;57.55;101090.59;5060058;28;20021;-17
2022/05/16 02:09:39;;;;;;;3.28;2.60;;;;;;;10.38;57.46;101085.31;5060949;28;20032;-17
2022/05/16 02:12:05;;;;;;;3.03;2.83;;;;;;;10.35;57.50;101079.19;5066145;28;20083;-17
2022/05/16 02:14:30;;;;;;;4.05;2.60;;;;;;;10.33;57.45;101076.53;5063403;28;20020;-17
2022/05/16 02:16:56;;;;;;;3.20;2.90;;;;;;;10.36;57.07;101076.53;5059337;28;20044;-17
2022/05/16 02:19:21;;;;;;;3.45;2.80;;;;;;;10.32;57.18;101072.16;5063409;28;20044;-18
2022/05/16 02:24:39;;;;;;;4.38;3.00;;;;;;;10.21;57.60;101068.66;5065250;28;20048;-17
2022/05/16 02:27:12;;;;;;;4.60;3.25;;;;;;;10.18;57.30;101071.28;5061051;28;20025;-17
2022/05/16 02:29:38;;;;;;;4.25;2.90;;;;;;;10.17;57.63;101069.53;5058651;28;20036;-17
2022/05/16 02:32:04;;;;;;;3.53;2.90;;;;;;;10.14;57.52;101067.81;5059024;28;20021;-17
2022/05/16 02:34:30;;;;;;;3.30;2.95;;;;;;;10.14;57.66;101063.38;5061417;28;20029;-17
2022/05/16 02:36:56;;;;;;;6.05;3.53;;;;;;;10.11;57.81;101060.75;5063196;28;20078;-17
2022/05/16 02:39:22;;;;;;;3.65;3.05;;;;;;;10.08;57.83;101060.78;5065381;28;20036;-17
2022/05/16 02:41:47;;;;;;;3.60;3.13;;;;;;;10.06;57.71;101062.53;5067252;28;20480;-17
2022/05/16 02:44:13;;;;;;;5.05;3.05;;;;;;;10.01;57.85;101051.97;5059410;28;20032;-17
2022/05/16 02:46:39;;;;;;;3.72;3.10;;;;;;;9.97;57.76;101049.38;5056364;28;20036;-17
2022/05/16 02:49:05;;;;;;;3.78;2.83;;;;;;;9.97;57.72;101044.94;5062686;28;20039;-17
2022/05/16 02:51:30;;;;;;;3.10;2.63;;;;;;;9.97;57.75;101041.47;5078870;28;20028;-17
2022/05/16 02:53:56;;;;;;;3.45;3.03;;;;;;;9.90;57.80;101040.56;5060192;28;20031;-17
2022/05/16 02:56:21;;;;;;;2.85;2.55;;;;;;;9.90;57.73;101050.25;5060305;28;20048;-18
2022/05/16 02:58:47;;;;;;;3.00;2.70;;;;;;;9.90;57.84;101055.50;5063036;28;20377;-17
2022/05/16 03:01:12;;;;;;;2.90;2.38;;;;;;;9.86;57.89;101044.97;5060180;28;20041;-18
2022/05/16 03:03:39;;;;;;;2.83;2.50;;;;;;;9.84;58.05;101046.72;5062055;28;20115;-17
2022/05/16 03:06:05;;;;;;;3.25;2.95;;;;;;;9.82;58.01;101045.84;5057600;28;20071;-17
2022/05/16 03:08:30;;;;;;;3.50;2.85;;;;;;;9.79;58.03;101044.94;5061534;28;20448;-17
2022/05/16 03:10:57;;;;;;;3.47;2.75;;;;;;;9.78;57.75;101057.25;5064171;28;20078;-17
2022/05/16 03:13:23;;;;;;;3.75;2.80;;;;;;;9.74;58.04;101056.38;5060638;28;20024;-17
2022/05/16 03:15:49;;;;;;;3.55;2.80;;;;;;;9.72;58.07;101052.88;5065318;28;20430;-17
2022/05/16 03:18:14;;;;;;;3.03;2.72;;;;;;;9.69;58.16;101058.13;5079719;28;20029;-18
2022/05/16 03:20:39;;;;;;;3.20;2.90;;;;;;;9.63;58.13;101053.75;5064069;28;20068;-17
2022/05/16 03:23:05;;;;;;;3.22;2.92;;;;;;;9.69;58.53;101052.88;5066449;28;20040;-17
2022/05/16 03:25:30;;;;;;;3.55;2.97;;;;;;;9.66;58.24;101052.84;5065286;28;20032;-17
2022/05/16 03:27:56;;;;;;;3.72;3.38;;;;;;;9.65;58.14;101060.75;5061983;28;20226;-18
2022/05/16 03:30:21;;;;;;;3.88;3.05;;;;;;;9.61;57.94;101050.22;5060209;28;20060;-17
2022/05/16 03:32:46;;;;;;;3.50;2.75;;;;;;;9.59;58.02;101051.97;5066252;28;20063;-17
2022/05/16 03:35:12;;;;;;;4.20;3.03;;;;;;;9.56;57.95;101049.34;5060509;28;20057;-17
2022/05/16 03:37:38;;;;;;;3.00;2.70;;;;;;;9.54;58.19;101051.06;5062291;28;20029;-17
2022/05/16 03:42:48;;;;;;;3.10;2.80;;;;;;;9.42;58.24;101053.69;5063207;28;20121;-17
2022/05/16 03:45:14;;;;;;;3.10;2.80;;;;;;;9.41;58.40;101051.94;5064102;28;20040;-18
2022/05/16 03:47:39;;;;;;;3.70;2.95;;;;;;;9.41;58.15;101059.84;5058485;28;20013;-17
2022/05/16 03:50:05;;;;;;;3.60;3.15;;;;;;;9.42;58.11;101058.97;5060830;28;20112;-17
2022/05/16 03:52:31;;;;;;;5.30;3.00;;;;;;;9.37;58.31;101059.84;5061063;28;20476;-17
2022/05/16 03:54:57;;;;;;;4.22;3.20;;;;;;;9.39;58.12;101058.94;5065464;28;20023;-17
2022/05/16 03:57:22;;;;;;;3.08;2.88;;;;;;;9.35;58.27;101053.72;5062345;28;20127;-18
2022/05/16 03:59:47;;;;;;;3.65;3.00;;;;;;;9.33;58.49;101052.81;5060976;28;20021;-17
2022/05/16 04:02:13;;;;;;;7.07;3.25;;;;;;;9.35;58.05;101053.72;5059884;28;20041;-17
2022/05/16 04:04:38;;;;;;;4.53;2.90;;;;;;;9.34;58.61;101053.69;5061095;28;20163;-17
2022/05/16 04:07:04;;;;;;;10.20;3.15;;;;;;;9.34;58.31;101044.03;5062322;28;20169;-17
2022/05/16 04:09:29;;;;;;;3.63;3.13;;;;;;;9.33;58.21;101047.53;5065643;28;20148;-17
2022/05/16 04:11:54;;;;;;;4.20;3.13;;;;;;;9.36;58.43;101038.78;5061616;28;20393;-17
2022/05/16 04:14:20;;;;;;;5.95;3.38;;;;;;;9.36;58.64;101029.13;5062523;28;20024;-18
2022/05/16 04:16:45;;;;;;;4.40;3.40;;;;;;;9.37;58.76;101030.88;5055796;28;20032;-17
2022/05/16 04:19:11;;;;;;;4.15;3.33;;;;;;;9.35;58.87;101027.38;5073180;28;20028;-17
2022/05/16 04:21:39;;;;;;;4.18;3.03;;;;;;;9.34;58.84;101040.53;5062460;28;20012;-17
2022/05/16 04:24:05;;;;;;;4.47;3.10;;;;;;;9.33;59.12;101047.53;5062861;28;20676;-17
2022/05/16 04:26:32;;;;;;;4.43;3.53;;;;;;;9.40;59.17;101045.78;5062251;28;20081;-17
2022/05/16 04:28:57;;;;;;;3.10;2.80;;;;;;;9.31;58.86;101043.16;5061616;28;20016;-17
2022/05/16 04:31:23;;;;;;;3.28;2.88;;;;;;;9.39;59.38;101038.78;5058550;28;20063;-17
2022/05/16 04:33:48;;;;;;;3.10;2.80;;;;;;;9.46;59.55;101040.56;5055940;28;20396;-17
2022/05/16 04:36:14;;;;;;;3.88;3.42;;;;;;;9.46;59.65;101044.94;5076800;28;20059;-17
2022/05/16 04:38:39;;;;;;;6.05;3.45;;;;;;;9.44;59.94;101042.28;5063017;28;21421;-17
2022/05/16 04:43:49;;;;;;;3.67;3.38;;;;;;;9.53;59.49;101033.53;5059088;28;20168;-18
2022/05/16 04:46:15;;;;;;;6.28;3.40;;;;;;;9.54;60.31;101027.38;5060370;28;20512;-17
2022/05/16 04:48:41;;;;;;;9.55;3.30;;;;;;;9.54;59.69;101037.91;5060955;28;20464;-17
2022/05/16 04:51:07;;;;;;;9.23;3.42;;;;;;;9.57;59.13;101037.91;5059390;28;20036;-18
2022/05/16 04:53:32;;;;;;;3.88;3.05;;;;;;;9.69;59.34;101037.06;5065083;28;20538;-17
2022/05/16 04:55:58;;;;;;;4.18;2.80;;;;;;;9.71;59.50;101037.06;5060810;28;20020;-17
2022/05/16 04:58:24;;;;;;;3.83;3.03;;;;;;;9.73;59.33;101032.66;5059948;28;20036;-17
2022/05/16 05:00:49;;;;;;;6.13;3.58;;;;;;;9.77;59.42;101023.88;5057940;28;20028;-17
2022/05/16 05:03:15;;;;;;;9.23;3.72;;;;;;;9.82;59.14;101026.50;5060360;28;20033;-17
2022/05/16 05:05:40;;;;;;;4.55;2.90;;;;;;;9.86;59.12;101020.38;5062018;28;20119;-17
2022/05/16 05:08:06;;;;;;;4.47;3.30;;;;;;;9.83;59.28;101020.34;5062133;28;21272;-17
2022/05/16 05:16:09;;;;;;;3.13;2.83;;;;;;;9.99;59.04;101023.88;5056647;28;20067;-17
2022/05/16 05:18:35;;;;;;;4.32;3.30;;;;;;;10.04;59.40;101032.63;5062418;28;20025;-17
2022/05/16 05:21:00;;;;;;;4.00;3.60;;;;;;;10.13;59.31;101031.75;5061608;28;20392;-17
2022/05/16 05:23:26;;;;;;;5.13;3.53;;;;;;;10.21;58.75;101024.72;5060002;28;20463;-17
2022/05/16 05:25:51;;;;;;;4.15;3.05;;;;;;;10.31;58.72;101041.41;5044677;28;20031;-17
2022/05/16 05:28:16;;;;;;;4.47;3.97;;;;;;;10.41;58.41;101031.72;5063496;28;20031;-17
2022/05/16 05:30:42;;;;;;;3.35;3.05;;;;;;;10.49;58.36;101040.50;5065947;28;20482;-17
2022/05/16 05:33:07;;;;;;;3.55;3.13;;;;;;;10.56;59.56;101046.63;5068537;28;20064;-17
2022/05/16 05:35:32;;;;;;;5.88;3.80;;;;;;;10.62;58.56;101046.63;5065895;28;20021;-17
2022/05/16 05:37:58;;;;;;;4.13;3.72;;;;;;;10.68;58.48;101035.19;5063156;28;21255;-17
2022/05/16 05:40:23;;;;;;;4.10;3.70;;;;;;;10.79;58.23;101045.69;5063474;28;20472;-17
2022/05/16 05:42:50;;;;;;;4.53;4.13;;;;;;;10.87;58.24;101046.53;5067801;28;20440;-17
2022/05/16 05:45:15;;;;;;;4.28;3.65;;;;;;;10.93;58.77;101048.25;5081846;28;20377;-17
2022/05/16 05:47:41;;;;;;;3.97;3.55;;;;;;;11.01;58.56;101038.53;5064366;28;20039;-17
2022/05/16 05:50:07;;;;;;;4.85;4.00;;;;;;;11.08;58.77;101039.41;5066491;28;20028;-17
2022/05/16 05:52:33;;;;;;;4.05;3.67;;;;;;;11.18;59.09;101034.94;5063981;28;20017;-17
2022/05/16 05:54:58;;;;;;;6.60;4.07;;;;;;;11.29;59.73;101037.50;5064643;28;20032;-17
2022/05/16 05:57:25;;;;;;;4.68;4.20;;;;;;;11.36;59.91;101028.66;5061736;28;20044;-17
2022/05/16 05:59:54;;;;;;;4.78;4.32;;;;;;;11.47;59.46;101031.22;5065438;28;20365;-17
2022/05/16 06:02:20;;;;;;;4.95;3.72;;;;;;;11.58;59.71;101028.53;5065756;28;20016;-17
2022/05/16 06:04:46;;;;;;;4.15;3.85;;;;;;;11.68;58.84;101032.81;5052401;28;20103;-18
2022/05/16 06:07:11;;;;;;;4.97;3.55;;;;;;;11.80;59.04;101025.69;5080658;28;20167;-17
2022/05/16 06:09:41;;;;;;;5.57;3.92;;;;;;;11.88;59.44;101021.22;5068973;28;20020;-17
2022/05/16 06:12:07;;;;;;;5.60;4.32;;;;;;;11.94;59.53;101025.59;5067073;28;20071;-17
2022/05/16 06:14:33;;;;;;;3.85;3.50;;;;;;;12.02;60.36;101028.13;5066563;28;20437;-17
2022/05/16 06:16:58;;;;;;;4.47;4.00;;;;;;;12.08;59.03;101020.19;5065201;28;20028;-17
2022/05/16 06:19:24;;;;;;;5.82;4.15;;;;;;;12.16;60.24;101025.41;5063944;28;20388;-17
2022/05/16 06:21:49;;;;;;;5.75;3.97;;;;;;;12.22;60.09;101029.75;5062671;28;20020;-18
2022/05/16 06:27:00;;;;;;;4.22;3.92;;;;;;;12.35;60.09;101031.38;5067008;28;20031;-17
2022/05/16 06:29:25;;;;;;;5.78;4.60;;;;;;;12.41;60.35;101033.94;5066203;28;20029;-18
2022/05/16 06:31:52;;;;;;;8.10;4.72;;;;;;;12.50;59.47;101032.13;5064219;28;20472;-17
2022/05/16 06:34:17;;;;;;;4.88;4.28;;;;;;;12.58;59.82;101028.47;5066279;28;20021;-17
2022/05/16 06:36:43;;;;;;;4.85;4.00;;;;;;;12.69;59.16;101035.41;5065321;28;20082;-18
2022/05/16 06:39:08;;;;;;;4.95;4.45;;;;;;;12.77;60.51;101030.03;5063900;28;20039;-18
2022/05/16 06:41:34;;;;;;;6.88;4.85;;;;;;;12.83;60.41;101012.28;5063639;28;20040;-17
2022/05/16 06:44:01;;;;;;;5.03;4.45;;;;;;;12.96;59.84;101023.59;5064450;28;20568;-17
2022/05/16 06:46:26;;;;;;;4.43;4.03;;;;;;;13.10;59.09;101025.16;5066411;28;20021;-17
2022/05/16 06:48:51;;;;;;;6.85;4.63;;;;;;;13.23;60.44;101022.34;5060708;28;20392;-17
2022/05/16 06:51:17;;;;;;;5.20;4.35;;;;;;;13.33;60.30;101027.47;5065877;28;20506;-17
2022/05/16 06:53:43;;;;;;;5.10;4.18;;;;;;;13.48;58.76;101025.50;5065187;28;20036;-17
2022/05/16 06:56:08;;;;;;;5.20;4.70;;;;;;;13.60;59.92;101024.44;5060211;28;20501;-17
2022/05/16 06:58:34;;;;;;;5.30;4.10;;;;;;;13.72;59.28;101021.63;5062805;28;20119;-17
2022/05/16 07:00:59;;;;;;;5.13;4.10;;;;;;;13.89;59.29;101017.78;5065424;28;20107;-17
2022/05/16 07:03:24;;;;;;;5.10;4.60;;;;;;;14.05;59.77;101030.78;5064479;28;20032;-17
2022/05/16 07:05:50;;;;;;;4.50;3.97;;;;;;;14.16;59.77;101012.91;5062764;28;20060;-17
2022/05/16 07:08:17;;;;;;;7.18;4.68;;;;;;;14.34;59.60;101016.97;5060800;28;20031;-17
2022/05/16 07:10:42;;;;;;;5.72;4.13;;;;;;;14.53;58.93;101015.72;5060760;28;20039;-17
2022/05/16 07:13:08;;;;;;;5.45;4.80;;;;;;;14.67;58.46;101018.97;5063661;28;20036;-17
2022/05/16 07:15:33;;;;;;;9.68;5.05;;;;;;;14.74;59.67;101014.44;5062088;28;20070;-17
2022/05/16 07:17:59;;;;;;;4.88;4.40;;;;;;;14.94;59.68;101008.69;5064965;28;20206;-17
2022/05/16 07:20:25;;;;;;;4.43;4.00;;;;;;;15.11;58.80;101018.09;5063346;28;20027;-17
2022/05/16 07:22:50;;;;;;;6.25;4.72;;;;;;;15.32;58.21;101021.16;5065955;28;20021;-18
2022/05/16 07:25:18;;;;;;;4.38;3.90;;;;;;;15.52;58.36;101013.59;5063214;28;20021;-18
2022/05/16 07:27:59;;;;;;;5.50;4.30;;;;;;;15.69;59.27;101014.94;5066000;28;20029;-18
2022/05/16 07:30:31;;;;;;;4.30;3.90;;;;;;;15.85;57.87;101011.91;5062935;28;20029;-18
2022/05/16 07:32:57;;;;;;;4.70;4.30;;;;;;;16.00;57.43;101006.22;5059468;28;20078;-18
2022/05/16 07:35:31;;;;;;;5.05;4.20;;;;;;;16.14;58.33;101005.81;5065585;28;20021;-18
2022/05/16 07:37:57;;;;;;;6.20;4.38;;;;;;;16.24;57.88;101006.44;5064834;28;20054;-18
2022/05/16 07:40:26;;;;;;;4.78;3.85;;;;;;;16.36;58.00;101001.69;5063536;28;20385;-18
2022/05/16 07:42:53;;;;;;;7.47;3.88;;;;;;;16.48;56.65;101001.38;5065496;28;20016;-18
2022/05/16 07:45:19;;;;;;;4.75;3.80;;;;;;;16.59;57.55;101000.16;5063945;28;20044;-17
2022/05/16 07:47:44;;;;;;;6.57;4.18;;;;;;;16.70;57.76;101005.19;5061602;28;20017;-18
2022/05/16 07:50:10;;;;;;;4.47;4.07;;;;;;;16.80;57.37;100986.22;5062157;28;20040;-17
2022/05/16 07:52:35;;;;;;;4.40;3.92;;;;;;;16.95;57.20;100991.13;5061820;28;20020;-18
2022/05/16 07:55:02;;;;;;;4.10;3.38;;;;;;;17.12;57.96;100993.28;5062477;28;20039;-17
2022/05/16 07:57:28;;;;;;;4.80;3.80;;;;;;;17.26;57.61;100988.41;5062279;28;20028;-17
2022/05/16 07:59:53;;;;;;;6.38;3.70;;;;;;;17.40;57.84;100982.63;5063805;28;20039;-18
2022/05/16 08:02:18;;;;;;;5.40;4.10;;;;;;;17.53;56.50;100988.41;5063645;28;20381;-18
2022/05/16 08:04:44;;;;;;;4.63;4.13;;;;;;;17.62;57.34;100986.34;5065614;28;20033;-17
2022/05/16 08:07:09;;;;;;;6.55;4.35;;;;;;;17.74;57.19;100990.41;5062869;28;20443;-18
2022/05/16 08:12:27;;;;;;;5.10;3.35;;;;;;;18.12;57.45;100974.88;5062742;28;20036;-18
2022/05/16 08:14:52;;;;;;;4.35;3.47;;;;;;;18.29;56.79;100976.06;5049440;28;20063;-18
2022/05/16 08:17:18;;;;;;;6.80;4.05;;;;;;;18.48;56.52;100970.91;5073360;28;20056;-18
2022/05/16 08:19:43;;;;;;;4.35;3.17;;;;;;;18.65;56.70;100972.06;5062530;28;20258;-18
2022/05/16 08:22:08;;;;;;;5.07;3.55;;;;;;;18.81;56.72;100962.50;5060459;28;20503;-18
2022/05/16 08:24:34;;;;;;;3.38;3.03;;;;;;;18.99;56.77;100968.06;5063317;28;20086;-18
2022/05/16 08:27:02;;;;;;;5.20;3.47;;;;;;;19.16;56.57;100969.22;5061225;28;20495;-18
2022/05/16 08:29:28;;;;;;;5.00;3.58;;;;;;;19.31;56.01;100960.56;5063079;28;20112;-18
2022/05/16 08:31:54;;;;;;;3.70;3.22;;;;;;;19.47;55.60;100959.94;5062684;28;20115;-18
2022/05/16 08:34:20;;;;;;;5.47;3.58;;;;;;;19.62;55.91;100961.09;5062615;28;20361;-18
2022/05/16 08:42:14;;;;;;;6.10;3.15;;;;;;;20.00;54.45;100969.28;5060503;28;20078;-18
2022/05/16 08:44:51;;;;;;;5.78;2.97;;;;;;;20.15;54.52;100974.03;5063519;28;20482;-18
2022/05/16 08:47:45;;;;;;;4.70;3.13;;;;;;;20.37;55.10;100972.13;5077932;28;20067;-18
2022/05/16 08:50:21;;;;;;;6.00;3.42;;;;;;;20.58;54.75;100972.06;5061072;28;20020;-18
2022/05/16 08:52:52;;;;;;;4.32;3.22;;;;;;;20.72;54.33;100967.88;5060431;28;20107;-18
2022/05/16 08:55:34;;;;;;;4.47;3.67;;;;;;;20.93;54.61;100967.81;5058587;28;20538;-18
2022/05/16 08:58:06;;;;;;;5.13;3.03;;;;;;;21.06;54.33;100960.94;5061960;28;20423;-18
2022/05/16 09:00:36;;;;;;;4.40;3.28;;;;;;;21.19;53.34;100957.63;5064583;28;20440;-18
2022/05/16 09:03:04;;;;;;;6.22;3.30;;;;;;;21.32;53.58;100956.09;5065689;28;20032;-18
2022/05/16 09:05:57;;;;;;;6.57;3.20;;;;;;;21.51;53.57;100955.16;5069041;28;20024;-18
2022/05/16 09:08:34;;;;;;;3.53;3.22;;;;;;;21.69;53.66;100953.34;5059944;28;20031;-18
2022/05/16 09:11:06;;;;;;;3.60;2.67;;;;;;;21.89;54.34;100957.72;5063266;28;20444;-18
2022/05/16 09:13:54;;;;;;;4.82;3.05;;;;;;;22.09;54.04;100953.09;5063635;28;20025;-18
2022/05/16 09:16:52;;;;;;;3.55;2.70;;;;;;;22.24;53.32;100939.78;5064064;28;20012;-18
2022/05/16 09:19:21;;;;;;;3.03;2.60;;;;;;;22.37;52.07;100951.59;5055406;28;20037;-18
2022/05/16 09:22:12;;;;;;;4.78;3.35;;;;;;;22.47;52.67;100953.78;5069467;28;20058;-18
2022/05/16 09:24:43;;;;;;;5.20;3.03;;;;;;;22.61;52.09;100948.53;5058880;28;20504;-18
2022/05/16 09:28:34;;;;;;;5.40;3.22;;;;;;;22.74;52.05;100943.31;5063355;28;20035;-18
2022/05/16 09:30:00;;;;;;;4.78;3.47;;;;;;;22.92;51.85;100933.38;5067765;28;20035;-18
2022/05/16 09:32:28;;;;;;;3.85;3.10;;;;;;;23.05;51.77;100940.72;5067537;28;20407;-18
2022/05/16 09:34:54;;;;;;;4.15;3.05;;;;;;;23.17;51.11;100933.75;5049404;28;20468;-18
2022/05/16 09:37:20;;;;;;;3.95;2.92;;;;;;;23.33;51.35;100934.59;5063659;28;20024;-18
2022/05/16 09:39:45;;;;;;;5.43;3.58;;;;;;;23.50;51.42;100932.75;5064535;28;20020;-18
2022/05/16 09:42:20;;;;;;;4.35;3.40;;;;;;;23.63;51.62;100932.88;5065709;28;20028;-18
2022/05/16 09:45:13;;;;;;;3.70;3.17;;;;;;;23.75;50.68;100927.69;5064350;28;20391;-18
2022/05/16 09:47:40;;;;;;;3.75;3.35;;;;;;;23.88;51.17;100928.69;5065633;28;20117;-18
2022/05/16 09:50:10;;;;;;;4.95;3.60;;;;;;;24.00;50.26;100920.81;5064842;28;20021;-18
2022/05/16 09:52:46;;;;;;;4.20;3.17;;;;;;;24.13;50.95;100919.09;5065338;28;20028;-17
2022/05/16 09:55:14;;;;;;;5.38;3.20;;;;;;;24.23;49.63;100913.16;5063175;28;20697;-18
2022/05/16 09:57:47;;;;;;;6.07;3.28;;;;;;;24.23;49.07;100908.63;5065759;28;20032;-18
2022/05/16 10:00:23;;;;;;;4.22;3.50;;;;;;;24.31;48.94;100900.91;5059360;28;20020;-18
2022/05/16 10:02:59;;;;;;;7.68;3.60;;;;;;;24.53;49.20;100901.34;5063506;28;20447;-18
2022/05/16 10:05:29;;;;;;;4.00;2.83;;;;;;;24.66;49.70;100899.59;5063918;28;20016;-18
2022/05/16 10:08:05;;;;;;;5.80;3.60;;;;;;;24.76;49.13;100897.16;5063136;28;20584;-18
2022/05/16 10:10:36;;;;;;;4.65;4.05;;;;;;;24.72;48.08;100890.25;5066490;28;20534;-17
2022/05/16 10:13:01;;;;;;;5.75;3.80;;;;;;;24.78;48.19;100897.06;5067296;28;20480;-18
2022/05/16 10:15:27;;;;;;;4.75;3.08;;;;;;;24.91;48.90;100897.16;5064679;28;20023;-17
2022/05/16 10:17:54;;;;;;;3.80;3.35;;;;;;;25.02;49.62;100891.91;5062899;28;20031;-18
2022/05/16 10:20:23;;;;;;;4.75;3.60;;;;;;;25.13;48.45;100893.84;5063907;28;20026;-19
2022/05/16 10:22:55;;;;;;;4.97;3.45;;;;;;;25.21;49.03;100902.28;5065220;28;20055;-18
2022/05/16 10:25:23;;;;;;;4.75;3.40;;;;;;;25.32;48.90;100898.88;5064968;28;20036;-18
2022/05/16 10:27:51;;;;;;;4.63;3.05;;;;;;;25.42;49.20;100888.31;5081936;28;20025;-18
2022/05/16 10:30:21;;;;;;;6.13;2.97;;;;;;;25.53;48.64;100890.25;5064453;28;20520;-18
2022/05/16 10:36:00;;;;;;;3.80;3.17;;;;;;;25.79;48.71;100878.63;5062855;28;20436;-18
2022/05/16 10:38:33;;;;;;;6.85;3.67;;;;;;;25.91;47.55;100869.66;5063639;28;20029;-18
2022/05/16 10:41:00;;;;;;;3.78;3.42;;;;;;;26.01;48.22;100873.44;5063084;28;20303;-18
2022/05/16 10:43:49;;;;;;;5.95;3.47;;;;;;;26.10;49.24;100868.34;5063544;28;20021;-18
2022/05/16 10:46:20;;;;;;;4.78;3.53;;;;;;;26.19;47.65;100869.50;5036325;28;20083;-18
2022/05/16 10:48:53;;;;;;;4.18;3.65;;;;;;;26.25;47.67;100869.06;5066835;28;20472;-18
2022/05/16 10:51:27;;;;;;;8.18;4.10;;;;;;;26.34;47.86;100862.16;5063263;28;20032;-18
2022/05/16 10:54:20;;;;;;;4.00;3.60;;;;;;;26.38;47.25;100864.50;5060282;28;20028;-18
2022/05/16 10:57:13;;;;;;;4.75;3.88;;;;;;;26.44;46.81;100870.47;5063516;28;20396;-18
2022/05/16 11:00:06;;;;;;;3.90;3.20;;;;;;;26.52;47.23;100868.94;5062410;28;20020;-18
2022/05/16 11:02:55;;;;;;;5.45;4.22;;;;;;;26.54;45.95;100871.50;5062022;28;20028;-18
2022/05/16 11:06:02;;;;;;;4.68;3.20;;;;;;;26.60;46.65;100862.06;5064278;28;20028;-18
2022/05/16 11:08:52;;;;;;;5.68;3.67;;;;;;;26.65;45.59;100870.72;5054931;28;20032;-18
2022/05/16 11:11:40;;;;;;;;;;;;;;;26.71;45.39;100869.41;5062778;28;20400;-18
2022/05/16 11:14:38;;;;;;;4.50;3.38;;;;;;;26.79;45.39;100866.97;5063037;28;19912;-18
2022/05/16 11:17:16;;;;;;;4.03;3.58;;;;;;;26.87;45.39;100866.38;5063150;28;20112;-18
2022/05/16 11:20:18;;;;;;;4.50;3.45;;;;;;;26.86;45.28;100852.00;5064291;28;20032;-18
2022/05/16 11:22:47;;;;;;;4.35;3.78;;;;;;;26.94;45.71;100859.53;5066036;28;20020;-18
2022/05/16 11:25:28;;;;;;;6.43;4.13;;;;;;;26.96;45.44;100857.59;5065549;28;20020;-18
2022/05/16 11:28:02;;;;;;;5.20;3.60;;;;;;;26.97;45.24;100862.03;5061563;28;20028;-18
2022/05/16 11:30:38;;;;;;;5.90;3.60;;;;;;;27.00;45.46;100861.81;5062833;28;20543;-18
2022/05/16 11:33:08;;;;;;;3.20;2.90;;;;;;;26.99;45.03;100857.38;5063063;28;20021;-18
2022/05/16 11:35:46;;;;;;;4.95;3.40;;;;;;;27.03;44.94;100855.28;5064777;28;20483;-18
2022/05/16 11:38:33;;;;;;;4.05;3.65;;;;;;;27.10;45.04;100859.25;5059894;28;20072;-18
2022/05/16 11:41:38;;;;;;;4.97;3.40;;;;;;;27.16;45.00;100852.50;5060597;28;20523;-18
2022/05/16 11:44:21;;;;;;;5.18;3.20;;;;;;;27.18;45.05;100853.25;4982457;28;20493;-18
2022/05/16 11:46:57;;;;;;;6.28;3.88;;;;;;;27.22;44.85;100853.88;4952896;28;20595;-18
2022/05/16 11:49:28;;;;;;;6.85;3.95;;;;;;;27.19;44.28;100852.28;5028470;28;20127;-18
2022/05/16 11:51:54;;;;;;;6.22;3.50;;;;;;;27.16;44.09;100852.50;5066664;28;20025;-18
2022/05/16 11:54:23;;;;;;;5.55;3.78;;;;;;;27.15;44.26;100861.63;5065374;28;20487;-18
2022/05/16 12:03:15;;;;;;;5.20;3.97;;;;;;;27.15;44.26;100845.38;5058995;28;20044;-18
2022/05/16 12:05:44;;;;;;;3.97;3.55;;;;;;;27.12;44.52;100840.19;5059277;28;20172;-18
2022/05/16 12:08:31;;;;;;;4.22;3.40;;;;;;;27.08;44.67;100836.00;5059937;28;20019;-18
2022/05/16 12:11:03;;;;;;;6.32;4.10;;;;;;;27.07;44.84;100837.00;5064882;28;20037;-18
2022/05/16 12:13:32;;;;;;;4.10;3.38;;;;;;;27.14;44.79;100827.41;5064370;28;20033;-18
2022/05/16 12:16:15;;;;;;;6.70;3.60;;;;;;;27.23;45.59;100826.69;5059912;28;20016;-19